sensor_id;sensor_type;location;lat;lon;timestamp;pressure;altitude;pressure_sealevel;temperature;humidity
57574;BME280;43409;48.858;21.906;2022-08-19T00:00:01;98266.91;;;27.02;49.18
57574;BME280;43409;48.858;21.906;2022-08-19T00:02:26;98267.09;;;27.06;49.15
57574;BME280;43409;48.858;21.906;2022-08-19T00:04:52;98270.88;;;27.05;48.90
57574;BME280;43409;48.858;21.906;2022-08-19T00:07:20;98275.16;;;27.06;49.12
57574;BME280;43409;48.858;21.906;2022-08-19T00:09:46;98273.56;;;27.05;48.84
57574;BME280;43409;48.858;21.906;2022-08-19T00:12:11;98278.94;;;27.05;48.93
57574;BME280;43409;48.858;21.906;2022-08-19T00:14:37;98269.06;;;27.00;49.18
57574;BME280;43409;48.858;21.906;2022-08-19T00:17:04;98267.69;;;27.03;48.92
57574;BME280;43409;48.858;21.906;2022-08-19T00:19:32;98273.75;;;26.94;49.09
57574;BME280;43409;48.858;21.906;2022-08-19T00:21:58;98268.88;;;26.96;49.46
57574;BME280;43409;48.858;21.906;2022-08-19T00:24:24;98265.69;;;26.94;49.70
57574;BME280;43409;48.858;21.906;2022-08-19T00:26:51;98267.84;;;26.92;49.47
57574;BME280;43409;48.858;21.906;2022-08-19T00:29:19;98265.88;;;26.98;49.27
57574;BME280;43409;48.858;21.906;2022-08-19T00:31:45;98253.31;;;26.93;49.64
57574;BME280;43409;48.858;21.906;2022-08-19T00:34:13;98256.78;;;26.94;49.41
57574;BME280;43409;48.858;21.906;2022-08-19T00:36:40;98255.50;;;26.91;49.81
57574;BME280;43409;48.858;21.906;2022-08-19T00:39:05;98259.38;;;26.85;49.92
57574;BME280;43409;48.858;21.906;2022-08-19T00:41:31;98261.06;;;26.81;49.71
57574;BME280;43409;48.858;21.906;2022-08-19T00:46:24;98249.22;;;26.82;50.05
57574;BME280;43409;48.858;21.906;2022-08-19T00:48:49;98264.47;;;26.87;49.65
57574;BME280;43409;48.858;21.906;2022-08-19T00:51:15;98260.38;;;26.89;49.52
57574;BME280;43409;48.858;21.906;2022-08-19T00:53:41;98267.47;;;26.85;50.01
57574;BME280;43409;48.858;21.906;2022-08-19T00:56:07;98258.56;;;26.85;50.07
57574;BME280;43409;48.858;21.906;2022-08-19T00:58:34;98272.84;;;26.85;49.89
57574;BME280;43409;48.858;21.906;2022-08-19T01:01:00;98270.63;;;26.87;49.43
57574;BME280;43409;48.858;21.906;2022-08-19T01:03:26;98277.19;;;26.81;50.05
57574;BME280;43409;48.858;21.906;2022-08-19T01:05:53;98280.38;;;26.83;49.53
57574;BME280;43409;48.858;21.906;2022-08-19T01:08:20;98280.97;;;26.80;49.87
57574;BME280;43409;48.858;21.906;2022-08-19T01:10:55;98290.06;;;26.84;49.83
57574;BME280;43409;48.858;21.906;2022-08-19T01:13:28;98285.75;;;26.83;49.73
57574;BME280;43409;48.858;21.906;2022-08-19T01:16:00;98280.19;;;26.79;49.94
57574;BME280;43409;48.858;21.906;2022-08-19T01:18:27;98280.56;;;26.73;50.34
57574;BME280;43409;48.858;21.906;2022-08-19T01:20:56;98276.19;;;26.77;50.03
57574;BME280;43409;48.858;21.906;2022-08-19T01:23:23;98283.38;;;26.82;49.85
57574;BME280;43409;48.858;21.906;2022-08-19T01:26:15;98282.53;;;26.67;50.46
57574;BME280;43409;48.858;21.906;2022-08-19T01:28:42;98277.22;;;26.62;50.30
57574;BME280;43409;48.858;21.906;2022-08-19T01:31:10;98274.38;;;26.53;50.51
57574;BME280;43409;48.858;21.906;2022-08-19T01:33:37;98263.94;;;26.52;50.66
57574;BME280;43409;48.858;21.906;2022-08-19T01:36:09;98268.56;;;26.46;51.12
57574;BME280;43409;48.858;21.906;2022-08-19T01:38:39;98276.28;;;26.53;50.79
57574;BME280;43409;48.858;21.906;2022-08-19T01:41:05;98273.94;;;26.46;50.93
57574;BME280;43409;48.858;21.906;2022-08-19T01:43:31;98263.63;;;26.53;50.91
57574;BME280;43409;48.858;21.906;2022-08-19T01:45:57;98280.19;;;26.60;50.86
57574;BME280;43409;48.858;21.906;2022-08-19T01:48:22;98277.28;;;26.57;50.92
57574;BME280;43409;48.858;21.906;2022-08-19T01:50:49;98268.00;;;26.49;51.07
57574;BME280;43409;48.858;21.906;2022-08-19T01:53:14;98272.78;;;26.52;50.91
57574;BME280;43409;48.858;21.906;2022-08-19T01:55:42;98266.81;;;26.55;51.03
57574;BME280;43409;48.858;21.906;2022-08-19T01:58:15;98260.31;;;26.42;50.69
57574;BME280;43409;48.858;21.906;2022-08-19T02:00:42;98267.59;;;26.42;51.28
57574;BME280;43409;48.858;21.906;2022-08-19T02:03:08;98264.91;;;26.42;50.87
57574;BME280;43409;48.858;21.906;2022-08-19T02:05:35;98255.94;;;26.47;50.82
57574;BME280;43409;48.858;21.906;2022-08-19T02:08:00;98257.63;;;26.42;51.09
57574;BME280;43409;48.858;21.906;2022-08-19T02:10:26;98264.31;;;26.45;51.03
57574;BME280;43409;48.858;21.906;2022-08-19T02:12:51;98261.53;;;26.50;50.85
57574;BME280;43409;48.858;21.906;2022-08-19T02:15:18;98252.16;;;26.48;50.57
57574;BME280;43409;48.858;21.906;2022-08-19T02:17:44;98253.47;;;26.50;50.72
57574;BME280;43409;48.858;21.906;2022-08-19T02:20:11;98257.31;;;26.44;50.76
57574;BME280;43409;48.858;21.906;2022-08-19T02:22:37;98259.53;;;26.42;51.11
57574;BME280;43409;48.858;21.906;2022-08-19T02:25:03;98255.44;;;26.44;50.98
57574;BME280;43409;48.858;21.906;2022-08-19T02:27:30;98258.66;;;26.47;50.99
57574;BME280;43409;48.858;21.906;2022-08-19T02:29:56;98252.53;;;26.41;50.70
57574;BME280;43409;48.858;21.906;2022-08-19T02:32:21;98244.97;;;26.43;51.00
57574;BME280;43409;48.858;21.906;2022-08-19T02:34:47;98255.13;;;26.46;50.84
57574;BME280;43409;48.858;21.906;2022-08-19T02:37:13;98250.94;;;26.40;51.11
57574;BME280;43409;48.858;21.906;2022-08-19T02:39:58;98254.00;;;26.33;51.25
57574;BME280;43409;48.858;21.906;2022-08-19T02:42:24;98258.78;;;26.36;50.89
57574;BME280;43409;48.858;21.906;2022-08-19T02:44:50;98247.84;;;26.33;51.18
57574;BME280;43409;48.858;21.906;2022-08-19T02:47:17;98245.06;;;26.38;51.14
57574;BME280;43409;48.858;21.906;2022-08-19T02:49:44;98245.56;;;26.40;51.07
57574;BME280;43409;48.858;21.906;2022-08-19T02:52:10;98241.88;;;26.36;50.92
57574;BME280;43409;48.858;21.906;2022-08-19T02:54:36;98240.75;;;26.37;50.81
57574;BME280;43409;48.858;21.906;2022-08-19T02:57:02;98255.81;;;26.38;51.31
57574;BME280;43409;48.858;21.906;2022-08-19T02:59:30;98257.56;;;26.29;51.19
57574;BME280;43409;48.858;21.906;2022-08-19T03:01:56;98248.91;;;26.32;51.17
57574;BME280;43409;48.858;21.906;2022-08-19T03:04:21;98257.06;;;26.26;51.39
57574;BME280;43409;48.858;21.906;2022-08-19T03:06:48;98261.06;;;26.29;51.31
57574;BME280;43409;48.858;21.906;2022-08-19T03:09:14;98253.72;;;26.35;51.19
57574;BME280;43409;48.858;21.906;2022-08-19T03:11:40;98255.25;;;26.22;51.23
57574;BME280;43409;48.858;21.906;2022-08-19T03:14:07;98263.03;;;26.23;51.58
57574;BME280;43409;48.858;21.906;2022-08-19T03:16:35;98265.63;;;26.29;51.46
57574;BME280;43409;48.858;21.906;2022-08-19T03:19:05;98274.50;;;26.29;51.18
57574;BME280;43409;48.858;21.906;2022-08-19T03:21:32;98276.47;;;26.23;51.15
57574;BME280;43409;48.858;21.906;2022-08-19T03:24:04;98276.97;;;26.25;51.52
57574;BME280;43409;48.858;21.906;2022-08-19T03:26:30;98275.44;;;26.19;51.24
57574;BME280;43409;48.858;21.906;2022-08-19T03:28:56;98273.56;;;26.20;51.18
57574;BME280;43409;48.858;21.906;2022-08-19T03:31:23;98279.44;;;26.22;51.42
57574;BME280;43409;48.858;21.906;2022-08-19T03:33:50;98281.53;;;26.25;51.00
57574;BME280;43409;48.858;21.906;2022-08-19T03:36:20;98280.47;;;26.26;51.14
57574;BME280;43409;48.858;21.906;2022-08-19T03:38:51;98283.44;;;26.24;50.89
57574;BME280;43409;48.858;21.906;2022-08-19T03:41:19;98290.69;;;26.24;50.85
57574;BME280;43409;48.858;21.906;2022-08-19T03:43:45;98298.03;;;26.18;51.11
57574;BME280;43409;48.858;21.906;2022-08-19T03:46:22;98299.88;;;26.23;50.90
57574;BME280;43409;48.858;21.906;2022-08-19T03:48:51;98302.88;;;26.16;51.10
57574;BME280;43409;48.858;21.906;2022-08-19T03:51:26;98304.22;;;26.19;50.88
57574;BME280;43409;48.858;21.906;2022-08-19T03:53:54;98299.63;;;26.19;50.77
57574;BME280;43409;48.858;21.906;2022-08-19T03:56:20;98307.69;;;26.19;50.67
57574;BME280;43409;48.858;21.906;2022-08-19T03:58:46;98320.03;;;26.20;50.81
57574;BME280;43409;48.858;21.906;2022-08-19T04:01:16;98323.97;;;26.28;50.16
57574;BME280;43409;48.858;21.906;2022-08-19T04:03:43;98328.75;;;26.31;50.47
57574;BME280;43409;48.858;21.906;2022-08-19T04:08:36;98330.88;;;26.34;50.18
57574;BME280;43409;48.858;21.906;2022-08-19T04:11:06;98319.38;;;26.29;50.28
57574;BME280;43409;48.858;21.906;2022-08-19T04:13:33;98326.56;;;26.33;50.17
57574;BME280;43409;48.858;21.906;2022-08-19T04:15:59;98322.66;;;26.25;50.24
57574;BME280;43409;48.858;21.906;2022-08-19T04:18:24;98322.44;;;26.22;50.48
57574;BME280;43409;48.858;21.906;2022-08-19T04:20:51;98324.84;;;26.23;50.51
57574;BME280;43409;48.858;21.906;2022-08-19T04:23:16;98322.81;;;26.34;50.13
57574;BME280;43409;48.858;21.906;2022-08-19T04:25:43;98326.19;;;26.40;50.29
57574;BME280;43409;48.858;21.906;2022-08-19T04:28:11;98323.16;;;26.47;49.89
57574;BME280;43409;48.858;21.906;2022-08-19T04:30:39;98335.00;;;26.45;50.33
57574;BME280;43409;48.858;21.906;2022-08-19T04:33:05;98345.63;;;26.56;49.89
57574;BME280;43409;48.858;21.906;2022-08-19T04:35:41;98352.56;;;26.57;49.74
57574;BME280;43409;48.858;21.906;2022-08-19T04:38:07;98343.44;;;26.58;49.33
57574;BME280;43409;48.858;21.906;2022-08-19T04:40:33;98342.06;;;26.60;49.78
57574;BME280;43409;48.858;21.906;2022-08-19T04:43:18;98335.06;;;26.59;49.97
57574;BME280;43409;48.858;21.906;2022-08-19T04:45:44;98333.25;;;26.55;49.82
57574;BME280;43409;48.858;21.906;2022-08-19T04:48:11;98318.16;;;26.59;49.68
57574;BME280;43409;48.858;21.906;2022-08-19T04:50:40;98316.34;;;26.54;49.92
57574;BME280;43409;48.858;21.906;2022-08-19T04:53:06;98316.75;;;26.61;49.65
57574;BME280;43409;48.858;21.906;2022-08-19T04:55:32;98324.19;;;26.70;49.72
57574;BME280;43409;48.858;21.906;2022-08-19T04:57:57;98310.84;;;26.78;49.28
57574;BME280;43409;48.858;21.906;2022-08-19T05:00:23;98302.75;;;25.83;51.77
57574;BME280;43409;48.858;21.906;2022-08-19T05:02:49;98311.09;;;25.58;52.72
57574;BME280;43409;48.858;21.906;2022-08-19T05:05:15;98305.63;;;25.68;52.62
57574;BME280;43409;48.858;21.906;2022-08-19T05:07:40;98316.28;;;26.21;51.58
57574;BME280;43409;48.858;21.906;2022-08-19T05:10:06;98305.38;;;26.70;50.24
57574;BME280;43409;48.858;21.906;2022-08-19T05:12:32;98306.41;;;26.88;49.49
57574;BME280;43409;48.858;21.906;2022-08-19T05:14:58;98284.59;;;26.89;49.76
57574;BME280;43409;48.858;21.906;2022-08-19T05:17:25;98290.19;;;26.93;49.66
57574;BME280;43409;48.858;21.906;2022-08-19T05:19:50;98290.81;;;27.04;49.41
57574;BME280;43409;48.858;21.906;2022-08-19T05:22:34;98293.97;;;26.92;50.04
57574;BME280;43409;48.858;21.906;2022-08-19T05:25:11;98296.16;;;26.90;50.17
57574;BME280;43409;48.858;21.906;2022-08-19T05:27:37;98296.38;;;26.93;49.85
57574;BME280;43409;48.858;21.906;2022-08-19T05:30:04;98290.34;;;26.83;49.87
57574;BME280;43409;48.858;21.906;2022-08-19T05:32:30;98282.22;;;27.02;49.81
57574;BME280;43409;48.858;21.906;2022-08-19T05:34:55;98279.84;;;27.14;49.48
57574;BME280;43409;48.858;21.906;2022-08-19T05:37:20;98291.03;;;27.21;49.54
57574;BME280;43409;48.858;21.906;2022-08-19T05:39:47;98297.84;;;27.32;48.64
57574;BME280;43409;48.858;21.906;2022-08-19T05:42:14;98290.88;;;27.31;48.95
57574;BME280;43409;48.858;21.906;2022-08-19T05:44:41;98291.28;;;27.39;49.10
57574;BME280;43409;48.858;21.906;2022-08-19T05:47:11;98284.66;;;27.31;49.18
57574;BME280;43409;48.858;21.906;2022-08-19T05:49:37;98284.03;;;27.20;49.43
57574;BME280;43409;48.858;21.906;2022-08-19T05:52:09;98283.97;;;27.25;49.21
57574;BME280;43409;48.858;21.906;2022-08-19T05:54:36;98293.03;;;27.29;49.06
57574;BME280;43409;48.858;21.906;2022-08-19T05:57:03;98294.50;;;27.22;49.81
57574;BME280;43409;48.858;21.906;2022-08-19T05:59:28;98296.63;;;27.25;49.15
57574;BME280;43409;48.858;21.906;2022-08-19T06:01:54;98293.31;;;27.28;49.20
57574;BME280;43409;48.858;21.906;2022-08-19T06:04:21;98303.75;;;27.35;49.32
57574;BME280;43409;48.858;21.906;2022-08-19T06:06:48;98297.25;;;27.49;49.09
57574;BME280;43409;48.858;21.906;2022-08-19T06:09:14;98312.22;;;27.56;48.87
57574;BME280;43409;48.858;21.906;2022-08-19T06:14:11;98316.34;;;27.67;48.53
57574;BME280;43409;48.858;21.906;2022-08-19T06:16:39;98316.09;;;27.77;48.44
57574;BME280;43409;48.858;21.906;2022-08-19T06:19:08;98314.41;;;27.81;47.90
57574;BME280;43409;48.858;21.906;2022-08-19T06:21:36;98313.03;;;27.84;48.14
57574;BME280;43409;48.858;21.906;2022-08-19T06:24:06;98320.41;;;27.92;48.33
57574;BME280;43409;48.858;21.906;2022-08-19T06:26:34;98312.75;;;27.72;48.46
57574;BME280;43409;48.858;21.906;2022-08-19T06:29:00;98314.13;;;27.83;48.10
57574;BME280;43409;48.858;21.906;2022-08-19T06:31:28;98316.22;;;27.86;48.02
57574;BME280;43409;48.858;21.906;2022-08-19T06:33:54;98313.03;;;27.98;47.66
57574;BME280;43409;48.858;21.906;2022-08-19T06:36:25;98309.22;;;27.99;47.72
57574;BME280;43409;48.858;21.906;2022-08-19T06:39:06;98318.63;;;28.01;47.86
57574;BME280;43409;48.858;21.906;2022-08-19T06:41:36;98314.53;;;28.04;48.16
57574;BME280;43409;48.858;21.906;2022-08-19T06:44:01;98308.03;;;28.05;47.97
57574;BME280;43409;48.858;21.906;2022-08-19T06:46:27;98313.63;;;28.09;47.89
57574;BME280;43409;48.858;21.906;2022-08-19T06:48:52;98316.81;;;28.11;47.88
57574;BME280;43409;48.858;21.906;2022-08-19T06:51:20;98327.97;;;28.18;47.74
57574;BME280;43409;48.858;21.906;2022-08-19T06:53:47;98331.16;;;28.20;47.89
57574;BME280;43409;48.858;21.906;2022-08-19T06:56:17;98332.78;;;28.21;47.90
57574;BME280;43409;48.858;21.906;2022-08-19T06:58:43;98329.56;;;28.19;47.77
57574;BME280;43409;48.858;21.906;2022-08-19T07:01:09;98334.34;;;28.22;47.89
57574;BME280;43409;48.858;21.906;2022-08-19T07:03:36;98325.94;;;28.23;47.85
57574;BME280;43409;48.858;21.906;2022-08-19T07:06:04;98330.72;;;28.27;47.29
57574;BME280;43409;48.858;21.906;2022-08-19T07:08:30;98332.53;;;28.31;47.47
57574;BME280;43409;48.858;21.906;2022-08-19T07:10:56;98338.22;;;28.30;47.89
57574;BME280;43409;48.858;21.906;2022-08-19T07:13:22;98340.63;;;28.31;47.82
57574;BME280;43409;48.858;21.906;2022-08-19T07:15:49;98337.31;;;28.34;47.81
57574;BME280;43409;48.858;21.906;2022-08-19T07:18:17;98327.34;;;28.35;47.83
57574;BME280;43409;48.858;21.906;2022-08-19T07:20:42;98333.53;;;28.35;48.17
57574;BME280;43409;48.858;21.906;2022-08-19T07:23:09;98325.44;;;28.35;48.19
57574;BME280;43409;48.858;21.906;2022-08-19T07:25:36;98327.03;;;28.36;47.84
57574;BME280;43409;48.858;21.906;2022-08-19T07:28:02;98320.53;;;28.37;48.25
57574;BME280;43409;48.858;21.906;2022-08-19T07:30:27;98319.25;;;28.35;48.32
57574;BME280;43409;48.858;21.906;2022-08-19T07:32:53;98317.34;;;28.35;48.02
57574;BME280;43409;48.858;21.906;2022-08-19T07:35:18;98318.94;;;28.36;47.85
57574;BME280;43409;48.858;21.906;2022-08-19T07:37:45;98320.25;;;28.25;48.00
57574;BME280;43409;48.858;21.906;2022-08-19T07:40:11;98320.16;;;28.30;46.56
57574;BME280;43409;48.858;21.906;2022-08-19T07:42:37;98317.34;;;28.35;46.42
57574;BME280;43409;48.858;21.906;2022-08-19T07:45:03;98311.16;;;28.35;46.32
57574;BME280;43409;48.858;21.906;2022-08-19T07:47:29;98303.56;;;28.37;46.15
57574;BME280;43409;48.858;21.906;2022-08-19T07:49:55;98305.56;;;28.31;44.54
57574;BME280;43409;48.858;21.906;2022-08-19T07:52:21;98305.47;;;28.36;43.53
57574;BME280;43409;48.858;21.906;2022-08-19T07:54:47;98303.56;;;28.37;43.80
57574;BME280;43409;48.858;21.906;2022-08-19T07:57:13;98307.03;;;28.37;44.01
57574;BME280;43409;48.858;21.906;2022-08-19T07:59:39;98304.34;;;28.37;41.98
57574;BME280;43409;48.858;21.906;2022-08-19T08:02:05;98302.47;;;28.38;41.72
57574;BME280;43409;48.858;21.906;2022-08-19T08:04:31;98304.03;;;28.39;40.98
57574;BME280;43409;48.858;21.906;2022-08-19T08:07:15;98312.44;;;28.37;41.20
57574;BME280;43409;48.858;21.906;2022-08-19T08:09:59;98311.03;;;28.40;39.72
57574;BME280;43409;48.858;21.906;2022-08-19T08:12:34;98305.34;;;28.42;39.70
57574;BME280;43409;48.858;21.906;2022-08-19T08:15:03;98306.13;;;28.42;38.79
57574;BME280;43409;48.858;21.906;2022-08-19T08:17:31;98309.13;;;28.40;40.77
57574;BME280;43409;48.858;21.906;2022-08-19T08:19:57;98302.94;;;28.40;39.47
57574;BME280;43409;48.858;21.906;2022-08-19T08:22:24;98307.56;;;28.39;38.87
57574;BME280;43409;48.858;21.906;2022-08-19T08:25:18;98297.56;;;28.40;38.48
57574;BME280;43409;48.858;21.906;2022-08-19T08:27:45;98304.72;;;28.45;39.64
57574;BME280;43409;48.858;21.906;2022-08-19T08:30:14;98299.34;;;28.45;38.74
57574;BME280;43409;48.858;21.906;2022-08-19T08:32:41;98301.53;;;28.43;37.69
57574;BME280;43409;48.858;21.906;2022-08-19T08:35:09;98304.72;;;28.45;37.26
57574;BME280;43409;48.858;21.906;2022-08-19T08:37:34;98299.34;;;28.45;36.90
57574;BME280;43409;48.858;21.906;2022-08-19T08:40:15;98302.03;;;28.45;37.04
57574;BME280;43409;48.858;21.906;2022-08-19T08:42:49;98298.94;;;28.37;38.32
57574;BME280;43409;48.858;21.906;2022-08-19T08:45:18;98299.94;;;28.42;37.52
57574;BME280;43409;48.858;21.906;2022-08-19T08:47:47;98293.16;;;28.44;37.14
57574;BME280;43409;48.858;21.906;2022-08-19T08:52:50;98272.19;;;28.41;36.68
57574;BME280;43409;48.858;21.906;2022-08-19T08:55:19;98272.38;;;28.45;36.41
57574;BME280;43409;48.858;21.906;2022-08-19T09:00:20;98272.38;;;28.45;36.48
57574;BME280;43409;48.858;21.906;2022-08-19T09:02:46;98274.56;;;28.43;36.81
57574;BME280;43409;48.858;21.906;2022-08-19T09:05:11;98262.97;;;28.42;35.54
57574;BME280;43409;48.858;21.906;2022-08-19T09:08:00;98257.78;;;28.46;36.18
57574;BME280;43409;48.858;21.906;2022-08-19T09:10:44;98261.75;;;28.48;39.48
57574;BME280;43409;48.858;21.906;2022-08-19T09:15:52;98255.69;;;28.43;35.96
57574;BME280;43409;48.858;21.906;2022-08-19T09:18:19;98262.66;;;28.44;36.19
57574;BME280;43409;48.858;21.906;2022-08-19T09:20:45;98259.50;;;28.42;35.22
57574;BME280;43409;48.858;21.906;2022-08-19T09:23:12;98262.19;;;28.42;35.53
57574;BME280;43409;48.858;21.906;2022-08-19T09:25:38;98256.00;;;28.41;35.11
57574;BME280;43409;48.858;21.906;2022-08-19T09:28:05;98263.78;;;28.43;35.03
57574;BME280;43409;48.858;21.906;2022-08-19T09:30:34;98258.41;;;28.43;34.91
57574;BME280;43409;48.858;21.906;2022-08-19T09:33:00;98261.88;;;28.43;34.83
57574;BME280;43409;48.858;21.906;2022-08-19T09:35:28;98261.41;;;28.41;35.73
57574;BME280;43409;48.858;21.906;2022-08-19T09:37:55;98262.81;;;28.38;35.08
57574;BME280;43409;48.858;21.906;2022-08-19T09:40:22;98257.41;;;28.38;36.49
57574;BME280;43409;48.858;21.906;2022-08-19T09:42:47;98262.19;;;28.42;35.31
57574;BME280;43409;48.858;21.906;2022-08-19T09:45:15;98265.66;;;28.42;34.82
57574;BME280;43409;48.858;21.906;2022-08-19T09:47:41;98258.63;;;28.32;35.40
57574;BME280;43409;48.858;21.906;2022-08-19T09:50:10;98252.63;;;28.35;34.91
57574;BME280;43409;48.858;21.906;2022-08-19T09:52:37;98260.88;;;28.39;36.57
57574;BME280;43409;48.858;21.906;2022-08-19T09:55:08;98243.63;;;28.40;35.07
57574;BME280;43409;48.858;21.906;2022-08-19T09:57:34;98261.41;;;28.41;34.99
57574;BME280;43409;48.858;21.906;2022-08-19T10:00:00;98259.19;;;28.43;34.91
57574;BME280;43409;48.858;21.906;2022-08-19T10:02:26;98255.69;;;28.43;34.48
57574;BME280;43409;48.858;21.906;2022-08-19T10:04:51;98245.69;;;28.43;34.57
57574;BME280;43409;48.858;21.906;2022-08-19T10:07:36;98248.56;;;28.47;35.22
57574;BME280;43409;48.858;21.906;2022-08-19T10:10:06;98243.47;;;28.45;34.44
57574;BME280;43409;48.858;21.906;2022-08-19T10:12:33;98245.41;;;28.45;34.62
57574;BME280;43409;48.858;21.906;2022-08-19T10:14:59;98246.19;;;28.45;34.62
57574;BME280;43409;48.858;21.906;2022-08-19T10:17:25;98242.38;;;28.46;34.24
57574;BME280;43409;48.858;21.906;2022-08-19T10:19:51;98237.78;;;28.47;34.03
57574;BME280;43409;48.858;21.906;2022-08-19T10:22:17;98245.25;;;28.50;34.80
57574;BME280;43409;48.858;21.906;2022-08-19T10:24:44;98241.00;;;28.49;34.06
57574;BME280;43409;48.858;21.906;2022-08-19T10:27:10;98235.59;;;28.49;33.88
57574;BME280;43409;48.858;21.906;2022-08-19T10:29:35;98228.78;;;28.51;35.25
57574;BME280;43409;48.858;21.906;2022-08-19T10:32:03;98229.06;;;28.50;34.42
57574;BME280;43409;48.858;21.906;2022-08-19T10:34:31;98221.00;;;28.50;34.44
57574;BME280;43409;48.858;21.906;2022-08-19T10:36:57;98222.59;;;28.51;33.95
57574;BME280;43409;48.858;21.906;2022-08-19T10:39:23;98216.22;;;28.47;33.89
57574;BME280;43409;48.858;21.906;2022-08-19T10:41:48;98213.72;;;28.50;33.92
57574;BME280;43409;48.858;21.906;2022-08-19T10:44:13;98224.38;;;28.55;34.25
57574;BME280;43409;48.858;21.906;2022-08-19T10:46:42;98220.69;;;28.51;34.06
57574;BME280;43409;48.858;21.906;2022-08-19T10:49:10;98218.28;;;28.50;33.69
57574;BME280;43409;48.858;21.906;2022-08-19T10:51:37;98217.19;;;28.51;33.53
57574;BME280;43409;48.858;21.906;2022-08-19T10:54:21;98218.50;;;28.53;33.81
57574;BME280;43409;48.858;21.906;2022-08-19T10:56:46;98203.56;;;28.56;34.20
57574;BME280;43409;48.858;21.906;2022-08-19T10:59:23;98207.41;;;28.55;33.74
57574;BME280;43409;48.858;21.906;2022-08-19T11:01:50;98205.78;;;28.54;33.19
57574;BME280;43409;48.858;21.906;2022-08-19T11:04:17;98206.78;;;28.58;34.17
57574;BME280;43409;48.858;21.906;2022-08-19T11:06:47;98203.56;;;28.56;34.67
57574;BME280;43409;48.858;21.906;2022-08-19T11:09:15;98194.38;;;28.57;33.89
57574;BME280;43409;48.858;21.906;2022-08-19T11:11:41;98197.28;;;28.61;36.71
57574;BME280;43409;48.858;21.906;2022-08-19T11:14:13;98195.47;;;28.79;37.39
57574;BME280;43409;48.858;21.906;2022-08-19T11:16:39;98192.53;;;28.89;38.21
57574;BME280;43409;48.858;21.906;2022-08-19T11:19:06;98187.34;;;29.01;38.35
57574;BME280;43409;48.858;21.906;2022-08-19T11:21:36;98183.66;;;28.97;38.42
57574;BME280;43409;48.858;21.906;2022-08-19T11:24:05;98179.84;;;28.98;38.58
57574;BME280;43409;48.858;21.906;2022-08-19T11:26:32;98176.38;;;29.06;39.00
57574;BME280;43409;48.858;21.906;2022-08-19T11:31:47;98158.00;;;28.46;36.93
57574;BME280;43409;48.858;21.906;2022-08-19T11:34:17;98167.31;;;28.39;37.33
57574;BME280;43409;48.858;21.906;2022-08-19T11:36:45;98162.53;;;28.36;36.84
57574;BME280;43409;48.858;21.906;2022-08-19T11:39:13;98162.53;;;28.36;36.72
57574;BME280;43409;48.858;21.906;2022-08-19T11:41:39;98156.94;;;28.33;37.46
57574;BME280;43409;48.858;21.906;2022-08-19T11:44:05;98158.25;;;28.35;37.43
57574;BME280;43409;48.858;21.906;2022-08-19T11:46:33;98114.47;;;28.07;37.20
57574;BME280;43409;48.858;21.906;2022-08-19T11:49:00;98162.53;;;28.36;37.27
57574;BME280;43409;48.858;21.906;2022-08-19T11:51:27;98159.84;;;28.36;37.26
57574;BME280;43409;48.858;21.906;2022-08-19T11:53:54;98158.00;;;28.46;38.17
57574;BME280;43409;48.858;21.906;2022-08-19T11:56:20;98148.47;;;28.48;37.81
57574;BME280;43409;48.858;21.906;2022-08-19T11:58:45;98155.63;;;28.53;37.01
57574;BME280;43409;48.858;21.906;2022-08-19T12:01:13;98134.19;;;28.70;34.87
57574;BME280;43409;48.858;21.906;2022-08-19T12:03:43;98152.56;;;29.00;33.51
57574;BME280;43409;48.858;21.906;2022-08-19T12:06:12;98132.41;;;29.15;32.49
57574;BME280;43409;48.858;21.906;2022-08-19T12:08:40;98144.75;;;28.58;37.12
57574;BME280;43409;48.858;21.906;2022-08-19T12:11:06;98150.78;;;28.95;36.72
57574;BME280;43409;48.858;21.906;2022-08-19T12:13:35;98142.50;;;29.40;34.59
57574;BME280;43409;48.858;21.906;2022-08-19T12:16:10;98133.78;;;29.43;33.51
57574;BME280;43409;48.858;21.906;2022-08-19T12:18:38;98136.63;;;29.56;32.13
57574;BME280;43409;48.858;21.906;2022-08-19T12:21:03;98132.81;;;29.65;31.77
57574;BME280;43409;48.858;21.906;2022-08-19T12:23:29;98130.16;;;29.92;30.39
57574;BME280;43409;48.858;21.906;2022-08-19T12:25:55;98137.47;;;29.74;30.35
57574;BME280;43409;48.858;21.906;2022-08-19T12:28:23;98126.47;;;29.79;29.55
57574;BME280;43409;48.858;21.906;2022-08-19T12:30:49;98120.00;;;29.80;29.61
57574;BME280;43409;48.858;21.906;2022-08-19T12:33:17;98129.03;;;29.75;29.29
57574;BME280;43409;48.858;21.906;2022-08-19T12:35:44;98131.22;;;29.38;30.64
57574;BME280;43409;48.858;21.906;2022-08-19T12:38:13;98125.78;;;29.21;31.21
57574;BME280;43409;48.858;21.906;2022-08-19T12:40:40;98124.00;;;29.07;31.38
57574;BME280;43409;48.858;21.906;2022-08-19T12:43:06;98126.34;;;29.00;31.76
57574;BME280;43409;48.858;21.906;2022-08-19T12:45:32;98138.13;;;29.04;32.13
57574;BME280;43409;48.858;21.906;2022-08-19T12:47:57;98140.94;;;28.99;32.09
57574;BME280;43409;48.858;21.906;2022-08-19T12:50:23;98139.38;;;28.98;32.30
57574;BME280;43409;48.858;21.906;2022-08-19T12:52:48;98134.59;;;28.95;32.34
57574;BME280;43409;48.858;21.906;2022-08-19T12:55:14;98136.78;;;28.93;32.82
57574;BME280;43409;48.858;21.906;2022-08-19T12:57:40;98123.63;;;28.91;32.74
57574;BME280;43409;48.858;21.906;2022-08-19T13:00:12;98125.84;;;28.89;33.05
57574;BME280;43409;48.858;21.906;2022-08-19T13:02:40;98116.13;;;28.80;32.74
57574;BME280;43409;48.858;21.906;2022-08-19T13:05:08;98123.75;;;28.86;33.15
57574;BME280;43409;48.858;21.906;2022-08-19T13:07:37;98125.69;;;28.86;33.13
57574;BME280;43409;48.858;21.906;2022-08-19T13:10:05;98118.69;;;28.85;33.31